createdAt,value
2022-12-15T00:02:40.360Z,99205.47
2022-12-15T00:05:25.704Z,99199.53
2022-12-15T00:08:10.563Z,99207.87
2022-12-15T00:10:55.493Z,99207.87
2022-12-15T00:13:40.348Z,99210.31
2022-12-15T00:16:25.564Z,99207.09
2022-12-15T00:19:10.882Z,99220.69
2022-12-15T00:21:55.743Z,99215.25
2022-12-15T00:24:40.821Z,99206.81
2022-12-15T00:27:25.779Z,99210.56
2022-12-15T00:30:10.761Z,99210.78
2022-12-15T00:32:55.686Z,99202.69
2022-12-15T00:35:40.689Z,99202.34
2022-12-15T00:38:25.697Z,99205.81
2022-12-15T00:40:59.198Z,99211.81
2022-12-15T00:43:25.647Z,99208.06
2022-12-15T00:46:10.905Z,99212.38
2022-12-15T00:48:37.330Z,99213.16
2022-12-15T00:51:03.665Z,99214.25
2022-12-15T00:53:48.854Z,99222.94
2022-12-15T00:56:33.773Z,99225.69
2022-12-15T00:59:18.710Z,99231.44
2022-12-15T01:02:03.831Z,99223.16
2022-12-15T01:04:49.043Z,99229.47
2022-12-15T01:07:33.921Z,99231.09
2022-12-15T01:10:18.963Z,99230.59
2022-12-15T01:13:03.870Z,99233.69
2022-12-15T01:15:48.891Z,99236.09
2022-12-15T01:18:33.901Z,99240.69
2022-12-15T01:21:00.223Z,99249.94
2022-12-15T01:23:26.672Z,99251.56
2022-12-15T01:25:53.165Z,99254.75
2022-12-15T01:28:19.466Z,99258.94
2022-12-15T01:30:46.022Z,99269.13
2022-12-15T01:33:12.342Z,99263.56
2022-12-15T01:35:38.695Z,99264.81
2022-12-15T01:38:05.047Z,99274.25
2022-12-15T01:40:46.764Z,99275.00
2022-12-15T01:43:13.454Z,99280.66
2022-12-15T01:45:39.771Z,99284.44
2022-12-15T01:48:06.145Z,99293.41
2022-12-15T01:50:32.508Z,99285.69
2022-12-15T01:52:58.840Z,99287.19
2022-12-15T01:55:25.145Z,99298.09
2022-12-15T01:57:51.465Z,99296.56
2022-12-15T02:00:17.792Z,99302.03
2022-12-15T02:02:44.339Z,99306.94
2022-12-15T02:05:10.822Z,99311.09
2022-12-15T02:07:37.167Z,99312.84
2022-12-15T02:10:03.478Z,99319.41
2022-12-15T02:12:29.802Z,99313.25
2022-12-15T02:14:56.128Z,99316.06
2022-12-15T02:17:22.434Z,99308.94
2022-12-15T02:19:48.766Z,99316.53
2022-12-15T02:22:15.883Z,99319.38
2022-12-15T02:24:42.220Z,99324.34
2022-12-15T02:27:08.534Z,99321.16
2022-12-15T02:29:34.845Z,99321.38
2022-12-15T02:32:01.188Z,99325.75
2022-12-15T02:34:27.700Z,99321.38
2022-12-15T02:36:54.011Z,99323.88
2022-12-15T02:39:20.327Z,99321.69
2022-12-15T02:41:46.647Z,99328.53
2022-12-15T02:44:12.959Z,99327.44
2022-12-15T02:46:39.297Z,99327.94
2022-12-15T02:49:05.618Z,99329.19
2022-12-15T02:51:31.940Z,99328.31
2022-12-15T02:53:58.304Z,99331.00
2022-12-15T02:56:24.674Z,99335.84
2022-12-15T02:58:51.022Z,99341.69
2022-12-15T03:01:17.512Z,99340.34
2022-12-15T03:03:43.915Z,99343.94
2022-12-15T03:06:10.238Z,99347.97
2022-12-15T03:08:36.552Z,99352.03
2022-12-15T03:11:02.866Z,99357.09
2022-12-15T03:13:29.748Z,99358.69
2022-12-15T03:15:58.266Z,99361.69
2022-12-15T03:18:24.587Z,99368.69
2022-12-15T03:20:51.043Z,99381.78
2022-12-15T03:23:17.347Z,99371.72
2022-12-15T03:25:43.667Z,99382.16
2022-12-15T03:28:09.987Z,99381.66
2022-12-15T03:30:36.308Z,99391.75
2022-12-15T03:33:02.694Z,99399.69
2022-12-15T03:35:29.029Z,99392.94
2022-12-15T03:37:55.342Z,99395.97
2022-12-15T03:40:21.663Z,99403.31
2022-12-15T03:42:48.754Z,99395.75
2022-12-15T03:45:15.061Z,99399.59
2022-12-15T03:47:41.907Z,99398.81
2022-12-15T03:50:08.251Z,99406.34
2022-12-15T03:52:34.563Z,99410.56
2022-12-15T03:55:00.869Z,99407.69
2022-12-15T03:57:27.183Z,99410.75
2022-12-15T03:59:53.499Z,99412.38
2022-12-15T04:02:19.954Z,99414.50
2022-12-15T04:04:46.404Z,99419.44
2022-12-15T04:07:13.028Z,99416.66
2022-12-15T04:09:39.352Z,99416.78
2022-12-15T04:12:05.726Z,99414.69
2022-12-15T04:14:32.040Z,99419.03
2022-12-15T04:16:58.424Z,99428.78
2022-12-15T04:19:43.564Z,99433.62
2022-12-15T04:22:12.623Z,99437.72
2022-12-15T04:25:01.482Z,99446.03
2022-12-15T04:27:46.391Z,99450.16
2022-12-15T04:30:31.465Z,99454.13
2022-12-15T04:33:16.531Z,99463.31
2022-12-15T04:36:01.494Z,99461.63
2022-12-15T04:38:50.286Z,99472.56
2022-12-15T04:41:35.670Z,99477.16
2022-12-15T04:44:20.597Z,99477.69
2022-12-15T04:47:05.430Z,99476.84
2022-12-15T04:49:50.403Z,99483.63
2022-12-15T04:52:35.461Z,99495.44
2022-12-15T04:55:20.443Z,99501.97
2022-12-15T04:58:05.429Z,99500.59
2022-12-15T05:00:50.363Z,99502.78
2022-12-15T05:03:35.683Z,99510.19
2022-12-15T05:06:21.077Z,99506.88
2022-12-15T05:09:05.995Z,99493.88
2022-12-15T05:11:50.901Z,99506.19
2022-12-15T05:14:35.778Z,99507.41
2022-12-15T05:17:20.832Z,99516.69
2022-12-15T05:20:06.079Z,99518.13
2022-12-15T05:22:51.210Z,99525.91
2022-12-15T05:25:35.995Z,99528.06
2022-12-15T05:28:20.907Z,99533.41
2022-12-15T05:31:05.924Z,99528.31
2022-12-15T05:33:32.550Z,99534.06
2022-12-15T05:35:59.163Z,99535.69
2022-12-15T05:38:25.551Z,99545.50
2022-12-15T05:40:51.860Z,99555.19
2022-12-15T05:43:21.682Z,99548.94
2022-12-15T05:45:52.472Z,99559.25
2022-12-15T05:48:18.838Z,99546.75
2022-12-15T05:50:45.178Z,99552.47
2022-12-15T05:53:11.523Z,99557.75
2022-12-15T05:55:37.833Z,99568.59
2022-12-15T05:58:04.214Z,99566.22
2022-12-15T06:00:30.534Z,99567.59
2022-12-15T06:02:56.898Z,99585.03
2022-12-15T06:05:23.233Z,99578.91
2022-12-15T06:07:49.591Z,99593.06
2022-12-15T06:10:15.917Z,99577.62
2022-12-15T06:12:42.263Z,99580.88
2022-12-15T06:15:08.584Z,99591.22
2022-12-15T06:17:34.894Z,99598.09
2022-12-15T06:20:01.231Z,99599.34
2022-12-15T06:22:27.539Z,99600.03
2022-12-15T06:24:53.857Z,99597.81
2022-12-15T06:27:20.216Z,99598.97
2022-12-15T06:29:46.526Z,99596.16
2022-12-15T06:32:12.859Z,99610.78
2022-12-15T06:34:39.173Z,99610.09
2022-12-15T06:37:06.484Z,99613.63
2022-12-15T06:39:32.790Z,99615.78
2022-12-15T06:41:59.120Z,99617.50
2022-12-15T06:44:25.435Z,99621.38
2022-12-15T06:46:51.798Z,99629.91
2022-12-15T06:49:18.229Z,99630.16
2022-12-15T06:51:45.166Z,99641.81
2022-12-15T06:54:11.580Z,99642.09
2022-12-15T06:56:38.867Z,99643.16
2022-12-15T06:59:05.193Z,99644.59
2022-12-15T07:01:35.303Z,99647.62
2022-12-15T07:04:03.234Z,99652.38
2022-12-15T07:06:30.367Z,99652.09
2022-12-15T07:08:56.907Z,99647.31
2022-12-15T07:11:23.402Z,99650.22
2022-12-15T07:13:50.013Z,99656.63
2022-12-15T07:16:16.361Z,99660.03
2022-12-15T07:18:42.696Z,99673.53
2022-12-15T07:21:09.144Z,99678.69
2022-12-15T07:23:53.367Z,99677.66
2022-12-15T07:26:20.954Z,99679.31
2022-12-15T07:28:47.349Z,99689.31
2022-12-15T07:31:13.879Z,99696.03
2022-12-15T07:33:40.256Z,99695.09
2022-12-15T07:36:08.324Z,99696.84
2022-12-15T07:38:35.049Z,99699.44
2022-12-15T07:41:02.167Z,99698.63
2022-12-15T07:43:28.732Z,99699.06
2022-12-15T07:45:55.411Z,99691.16
2022-12-15T07:48:21.850Z,99702.75
2022-12-15T07:50:48.184Z,99710.56
2022-12-15T07:53:16.745Z,99710.53
2022-12-15T07:56:06.344Z,99718.16
2022-12-15T07:58:29.404Z,99718.78
2022-12-15T08:00:55.766Z,99713.13
2022-12-15T08:03:22.304Z,99723.75
2022-12-15T08:05:48.816Z,99727.63
2022-12-15T08:08:15.738Z,99727.19
2022-12-15T08:10:42.116Z,99716.19
2022-12-15T08:13:08.779Z,99722.53
2022-12-15T08:15:35.090Z,99717.34
2022-12-15T08:18:01.787Z,99714.88
2022-12-15T08:20:29.264Z,99715.41
2022-12-15T08:22:55.646Z,99719.22
2022-12-15T08:25:21.979Z,99731.06
2022-12-15T08:27:48.351Z,99732.69
2022-12-15T08:30:14.667Z,99740.63
2022-12-15T08:32:41.004Z,99745.06
2022-12-15T08:35:25.333Z,99751.19
2022-12-15T08:37:54.529Z,99751.16
2022-12-15T08:40:20.860Z,99750.50
2022-12-15T08:42:47.165Z,99764.25
2022-12-15T08:45:13.537Z,99756.47
2022-12-15T08:47:39.999Z,99759.13
2022-12-15T08:50:06.842Z,99760.66
2022-12-15T08:52:33.250Z,99759.56
2022-12-15T08:54:59.600Z,99763.06
2022-12-15T08:57:25.975Z,99768.28
2022-12-15T08:59:52.317Z,99765.25
2022-12-15T09:02:18.800Z,99759.94
2022-12-15T09:04:45.508Z,99759.81
2022-12-15T09:07:11.906Z,99756.16
2022-12-15T09:09:38.216Z,99754.16
2022-12-15T09:12:04.599Z,99760.00
2022-12-15T09:14:34.431Z,99763.41
2022-12-15T09:17:00.976Z,99760.22
2022-12-15T09:19:27.992Z,99762.13
2022-12-15T09:21:54.313Z,99766.41
2022-12-15T09:24:32.058Z,99772.37
2022-12-15T09:27:00.870Z,99762.59
2022-12-15T09:29:27.215Z,99769.34
2022-12-15T09:31:53.530Z,99761.38
2022-12-15T09:34:19.861Z,99768.66
2022-12-15T09:36:46.171Z,99770.59
2022-12-15T09:39:12.912Z,99771.78
2022-12-15T09:41:39.246Z,99773.31
2022-12-15T09:44:05.580Z,99777.53
2022-12-15T09:46:32.005Z,99765.44
2022-12-15T09:48:58.428Z,99765.47
2022-12-15T09:51:24.765Z,99765.28
2022-12-15T09:53:55.822Z,99770.75
2022-12-15T09:56:22.620Z,99761.44
2022-12-15T09:58:50.767Z,99770.00
2022-12-15T10:01:17.153Z,99772.78
2022-12-15T10:03:43.616Z,99777.03
2022-12-15T10:06:21.171Z,99768.72
2022-12-15T10:08:48.610Z,99778.47
2022-12-15T10:11:17.368Z,99774.09
2022-12-15T10:13:43.726Z,99774.09
2022-12-15T10:16:10.132Z,99775.75
2022-12-15T10:18:36.500Z,99788.81
2022-12-15T10:21:02.880Z,99791.28
2022-12-15T10:23:29.784Z,99793.78
2022-12-15T10:25:56.459Z,99794.09
2022-12-15T10:28:22.788Z,99789.88
2022-12-15T10:30:49.159Z,99787.97
2022-12-15T10:33:17.189Z,99790.47
2022-12-15T10:35:44.293Z,99788.69
2022-12-15T10:38:10.692Z,99793.91
2022-12-15T10:40:37.002Z,99791.28
2022-12-15T10:43:03.371Z,99803.16
2022-12-15T10:45:29.686Z,99805.13
2022-12-15T10:47:56.038Z,99807.78
2022-12-15T10:53:08.738Z,99805.47
2022-12-15T10:55:35.049Z,99809.00
2022-12-15T10:58:01.362Z,99798.13
2022-12-15T11:00:28.017Z,99811.50
2022-12-15T11:02:54.824Z,99806.59
2022-12-15T11:05:21.371Z,99804.66
2022-12-15T11:07:47.701Z,99811.25
2022-12-15T11:10:14.014Z,99800.59
2022-12-15T11:12:58.331Z,99799.47
2022-12-15T11:15:24.963Z,99790.72
2022-12-15T11:17:51.373Z,99783.59
2022-12-15T11:20:17.716Z,99789.84
2022-12-15T11:22:44.033Z,99798.09
2022-12-15T11:25:11.600Z,99799.47
2022-12-15T11:27:43.448Z,99793.41
2022-12-15T11:30:09.872Z,99795.34
2022-12-15T11:32:36.178Z,99800.31
2022-12-15T11:35:02.618Z,99798.38
2022-12-15T11:37:34.200Z,99791.28
2022-12-15T11:40:02.658Z,99782.22
2022-12-15T11:42:28.957Z,99798.88
2022-12-15T11:44:55.336Z,99789.53
2022-12-15T11:47:21.877Z,99789.59
2022-12-15T11:49:48.215Z,99795.87
2022-12-15T11:52:15.133Z,99795.09
2022-12-15T11:54:41.547Z,99788.78
2022-12-15T11:57:07.871Z,99793.47
2022-12-15T11:59:34.203Z,99785.50
2022-12-15T12:02:03.369Z,99786.03
2022-12-15T12:04:30.067Z,99786.84
2022-12-15T12:06:56.457Z,99787.69
2022-12-15T12:09:22.815Z,99781.97
2022-12-15T12:11:50.601Z,99780.34
2022-12-15T12:14:17.011Z,99780.31
2022-12-15T12:16:43.330Z,99783.00
2022-12-15T12:19:09.721Z,99783.88
2022-12-15T12:21:36.374Z,99766.91
2022-12-15T12:24:02.686Z,99758.69
2022-12-15T12:26:29.076Z,99759.50
2022-12-15T12:28:58.147Z,99762.25
2022-12-15T12:31:24.480Z,99756.25
2022-12-15T12:33:50.853Z,99750.78
2022-12-15T12:36:17.175Z,99748.31
2022-12-15T12:38:46.410Z,99754.88
2022-12-15T12:41:17.324Z,99749.69
2022-12-15T12:43:43.688Z,99758.44
2022-12-15T12:46:10.267Z,99756.25
2022-12-15T12:48:37.846Z,99758.72
2022-12-15T12:51:04.473Z,99769.38
2022-12-15T12:53:31.260Z,99767.75
2022-12-15T12:55:57.827Z,99765.56
2022-12-15T12:58:25.064Z,99771.56
2022-12-15T13:00:56.697Z,99771.03
2022-12-15T13:03:23.323Z,99776.22
2022-12-15T13:05:50.552Z,99771.00
2022-12-15T13:08:17.125Z,99769.09
2022-12-15T13:10:43.515Z,99765.53
2022-12-15T13:13:09.839Z,99770.44
2022-12-15T13:15:37.370Z,99768.56
2022-12-15T13:18:03.831Z,99757.59
2022-12-15T13:20:30.251Z,99758.72
2022-12-15T13:22:56.991Z,99767.47
2022-12-15T13:25:23.296Z,99766.38
2022-12-15T13:27:49.637Z,99763.63
2022-12-15T13:30:16.519Z,99761.72
2022-12-15T13:32:42.912Z,99760.06
2022-12-15T13:35:09.291Z,99747.19
2022-12-15T13:37:35.635Z,99751.88
2022-12-15T13:40:02.026Z,99752.97
2022-12-15T13:42:45.315Z,99749.69
2022-12-15T13:45:14.680Z,99760.09
2022-12-15T13:47:40.988Z,99769.91
2022-12-15T13:50:07.398Z,99778.13
2022-12-15T13:53:16.558Z,99775.97
2022-12-15T13:55:27.303Z,99770.75
2022-12-15T13:57:54.283Z,99768.81
2022-12-15T14:00:20.768Z,99778.94
2022-12-15T14:02:47.164Z,99781.97
2022-12-15T14:05:15.016Z,99784.12
2022-12-15T14:07:41.342Z,99786.84
2022-12-15T14:10:07.693Z,99796.97
2022-12-15T14:12:34.036Z,99795.56
2022-12-15T14:15:00.380Z,99797.47
2022-12-15T14:17:26.699Z,99801.03
2022-12-15T14:19:53.087Z,99788.44
2022-12-15T14:22:26.731Z,99794.41
2022-12-15T14:24:54.318Z,99793.06
2022-12-15T14:27:20.640Z,99785.38
2022-12-15T14:29:46.979Z,99784.25
2022-12-15T14:32:17.081Z,99775.50
2022-12-15T14:34:43.488Z,99775.19
2022-12-15T14:37:09.839Z,99772.69
2022-12-15T14:39:36.254Z,99780.34
2022-12-15T14:42:02.957Z,99783.56
2022-12-15T14:44:37.316Z,99786.84
2022-12-15T14:47:05.886Z,99783.81
2022-12-15T14:49:32.250Z,99789.53
2022-12-15T14:51:58.557Z,99793.56
2022-12-15T14:54:25.555Z,99786.97
2022-12-15T14:56:51.857Z,99791.88
2022-12-15T14:59:19.227Z,99794.84
2022-12-15T15:01:45.677Z,99794.81
2022-12-15T15:04:11.998Z,99787.97
2022-12-15T15:06:38.352Z,99787.66
2022-12-15T15:09:04.658Z,99782.19
2022-12-15T15:11:31.068Z,99781.06
2022-12-15T15:13:57.414Z,99788.97
2022-12-15T15:16:23.833Z,99781.00
2022-12-15T15:18:50.186Z,99775.78
2022-12-15T15:21:16.504Z,99776.88
2022-12-15T15:23:42.828Z,99780.91
2022-12-15T15:26:09.673Z,99786.56
2022-12-15T15:28:36.182Z,99783.19
2022-12-15T15:31:06.995Z,99786.16
2022-12-15T15:33:33.504Z,99786.38
2022-12-15T15:36:00.088Z,99775.94
2022-12-15T15:38:30.801Z,99786.25
2022-12-15T15:40:57.336Z,99781.25
2022-12-15T15:43:23.983Z,99785.84
2022-12-15T15:45:50.429Z,99784.38
2022-12-15T15:48:16.830Z,99775.59
2022-12-15T15:50:43.407Z,99786.94
2022-12-15T15:53:09.727Z,99789.84
2022-12-15T15:55:39.660Z,99792.16
2022-12-15T15:58:06.249Z,99776.00
2022-12-15T16:00:32.556Z,99792.78
2022-12-15T16:02:59.111Z,99778.41
2022-12-15T16:05:25.587Z,99791.66
2022-12-15T16:07:51.905Z,99788.13
2022-12-15T16:10:18.235Z,99796.84
2022-12-15T16:12:44.597Z,99811.44
2022-12-15T16:15:10.932Z,99806.78
2022-12-15T16:17:37.282Z,99802.78
2022-12-15T16:20:04.606Z,99816.09
2022-12-15T16:22:30.910Z,99822.88
2022-12-15T16:24:57.218Z,99820.56
2022-12-15T16:27:23.578Z,99814.22
2022-12-15T16:29:49.899Z,99820.63
2022-12-15T16:32:16.235Z,99826.28
2022-12-15T16:34:42.538Z,99828.94
2022-12-15T16:37:08.868Z,99829.97
2022-12-15T16:39:35.269Z,99818.56
2022-12-15T16:42:01.588Z,99822.50
2022-12-15T16:44:27.952Z,99821.22
2022-12-15T16:46:54.450Z,99832.50
2022-12-15T16:49:20.828Z,99837.00
2022-12-15T16:51:47.150Z,99832.66
2022-12-15T16:54:13.468Z,99839.75
2022-12-15T16:56:39.943Z,99847.63
2022-12-15T16:59:31.866Z,99840.22
2022-12-15T17:01:53.631Z,99843.63
2022-12-15T17:04:21.566Z,99837.12
2022-12-15T17:06:48.024Z,99840.22
2022-12-15T17:09:14.331Z,99840.63
2022-12-15T17:11:40.775Z,99834.53
2022-12-15T17:14:07.648Z,99834.06
2022-12-15T17:16:34.078Z,99830.72
2022-12-15T17:19:00.450Z,99829.75
2022-12-15T17:21:26.802Z,99842.66
2022-12-15T17:23:53.183Z,99844.53
2022-12-15T17:26:27.714Z,99851.13
2022-12-15T17:28:54.755Z,99849.53
2022-12-15T17:31:21.283Z,99842.84
2022-12-15T17:33:48.142Z,99847.63
2022-12-15T17:36:14.448Z,99842.91
2022-12-15T17:38:40.767Z,99837.81
2022-12-15T17:41:07.096Z,99832.56
2022-12-15T17:43:35.925Z,99838.75
2022-12-15T17:46:02.701Z,99832.81
2022-12-15T17:48:29.065Z,99828.47
2022-12-15T17:50:55.464Z,99832.34
2022-12-15T17:53:21.769Z,99833.87
2022-12-15T17:55:48.138Z,99832.22
2022-12-15T17:58:14.449Z,99840.84
2022-12-15T18:00:45.883Z,99849.34
2022-12-15T18:03:15.599Z,99834.78
2022-12-15T18:05:42.090Z,99833.06
2022-12-15T18:08:08.439Z,99835.72
2022-12-15T18:10:34.810Z,99826.47
2022-12-15T18:13:01.202Z,99819.84
2022-12-15T18:15:27.534Z,99817.03
2022-12-15T18:17:53.930Z,99819.00
2022-12-15T18:20:20.810Z,99808.31
2022-12-15T18:22:47.140Z,99815.44
2022-12-15T18:25:13.463Z,99824.16
2022-12-15T18:27:40.499Z,99817.03
2022-12-15T18:30:06.874Z,99812.66
2022-12-15T18:32:38.350Z,99820.78
2022-12-15T18:35:05.018Z,99817.22
2022-12-15T18:37:31.431Z,99825.69
2022-12-15T18:40:04.183Z,99833.44
2022-12-15T18:42:31.442Z,99848.13
2022-12-15T18:44:58.782Z,99835.72
2022-12-15T18:47:26.335Z,99841.59
2022-12-15T18:49:52.711Z,99842.25
2022-12-15T18:52:19.078Z,99838.22
2022-12-15T18:54:45.401Z,99834.13
2022-12-15T18:57:11.884Z,99840.19
2022-12-15T18:59:38.267Z,99827.50
2022-12-15T19:02:04.745Z,99827.75
2022-12-15T19:04:31.106Z,99829.78
2022-12-15T19:07:01.128Z,99829.06
2022-12-15T19:09:27.443Z,99825.41
2022-12-15T19:12:16.803Z,99814.84
2022-12-15T19:14:43.420Z,99811.53
2022-12-15T19:17:28.600Z,99814.44
2022-12-15T19:20:13.514Z,99816.09
2022-12-15T19:22:39.829Z,99826.28
2022-12-15T19:25:06.169Z,99825.13
2022-12-15T19:27:32.471Z,99817.72
2022-12-15T19:29:58.780Z,99817.28
2022-12-15T19:32:26.814Z,99813.03
2022-12-15T19:34:53.126Z,99804.16
2022-12-15T19:37:19.770Z,99810.66
2022-12-15T19:39:47.126Z,99819.47
2022-12-15T19:42:13.433Z,99822.78
2022-12-15T19:44:39.987Z,99815.56
2022-12-15T19:47:06.295Z,99818.59
2022-12-15T19:49:32.882Z,99822.75
2022-12-15T19:51:59.222Z,99818.37
2022-12-15T19:54:25.534Z,99815.97
2022-12-15T19:56:51.900Z,99818.63
2022-12-15T19:59:18.203Z,99808.56
2022-12-15T20:01:44.670Z,99811.84
2022-12-15T20:04:11.092Z,99803.47
2022-12-15T20:09:09.875Z,99809.81
2022-12-15T20:11:36.185Z,99803.37
2022-12-15T20:14:02.529Z,99808.41
2022-12-15T20:16:28.936Z,99814.16
2022-12-15T20:18:55.480Z,99807.88
2022-12-15T20:21:22.707Z,99805.59
2022-12-15T20:23:49.312Z,99799.28
2022-12-15T20:26:15.614Z,99802.75
2022-12-15T20:28:41.913Z,99806.75
2022-12-15T20:31:08.228Z,99803.84
2022-12-15T20:33:34.864Z,99804.81
2022-12-15T20:36:01.453Z,99792.09
2022-12-15T20:38:27.814Z,99797.50
2022-12-15T20:40:54.121Z,99784.44
2022-12-15T20:43:20.638Z,99780.69
2022-12-15T20:45:46.998Z,99771.69
2022-12-15T20:48:13.775Z,99774.31
2022-12-15T20:50:41.224Z,99761.50
2022-12-15T20:53:07.676Z,99759.13
2022-12-15T20:55:35.083Z,99755.91
2022-12-15T20:58:01.393Z,99753.75
2022-12-15T21:00:27.716Z,99742.66
2022-12-15T21:02:55.062Z,99733.66
2022-12-15T21:05:21.836Z,99728.78
2022-12-15T21:07:48.173Z,99724.38
2022-12-15T21:10:14.523Z,99724.81
2022-12-15T21:12:40.903Z,99738.97
2022-12-15T21:15:07.892Z,99741.75
2022-12-15T21:17:37.443Z,99740.28
2022-12-15T21:20:07.921Z,99742.25
2022-12-15T21:22:34.238Z,99738.19
2022-12-15T21:25:01.240Z,99728.84
2022-12-15T21:27:27.557Z,99726.16
2022-12-15T21:29:53.933Z,99729.38
2022-12-15T21:32:21.325Z,99726.25
2022-12-15T21:34:47.704Z,99735.84
2022-12-15T21:37:14.003Z,99733.34
2022-12-15T21:39:43.777Z,99733.53
2022-12-15T21:42:10.105Z,99730.38
2022-12-15T21:44:36.430Z,99727.37
2022-12-15T21:47:02.729Z,99722.84
2022-12-15T21:49:29.049Z,99728.56
2022-12-15T21:51:55.516Z,99721.78
2022-12-15T21:54:26.060Z,99714.47
2022-12-15T21:56:55.319Z,99717.66
2022-12-15T21:59:21.745Z,99723.59
2022-12-15T22:01:48.176Z,99714.91
2022-12-15T22:04:14.542Z,99709.16
2022-12-15T22:06:43.676Z,99714.66
2022-12-15T22:09:13.602Z,99717.06
2022-12-15T22:11:39.911Z,99722.78
2022-12-15T22:14:06.262Z,99723.66
2022-12-15T22:16:32.628Z,99730.00
2022-12-15T22:18:59.019Z,99740.88
2022-12-15T22:21:25.324Z,99727.31
2022-12-15T22:23:51.663Z,99740.19
2022-12-15T22:26:17.983Z,99731.81
2022-12-15T22:28:44.748Z,99740.34
2022-12-15T22:31:11.093Z,99739.97
2022-12-15T22:33:37.463Z,99745.41
2022-12-15T22:36:03.880Z,99746.59
2022-12-15T22:38:30.600Z,99742.97
2022-12-15T22:40:57.141Z,99735.88
2022-12-15T22:43:23.495Z,99739.78
2022-12-15T22:45:49.835Z,99745.41
2022-12-15T22:48:18.289Z,99748.69
2022-12-15T22:50:44.611Z,99741.81
2022-12-15T22:53:10.916Z,99752.47
2022-12-15T22:55:37.237Z,99749.94
2022-12-15T22:58:03.618Z,99746.00
2022-12-15T23:00:29.951Z,99749.81
2022-12-15T23:05:22.847Z,99754.44
2022-12-15T23:07:49.175Z,99755.03
2022-12-15T23:10:34.343Z,99758.66
2022-12-15T23:13:00.655Z,99764.94
2022-12-15T23:15:45.975Z,99770.34
2022-12-15T23:18:12.330Z,99765.75
2022-12-15T23:20:38.652Z,99765.75
2022-12-15T23:23:05.016Z,99761.97
2022-12-15T23:25:31.318Z,99755.97
2022-12-15T23:27:57.695Z,99738.69
2022-12-15T23:30:24.441Z,99728.41
2022-12-15T23:32:50.888Z,99731.19
2022-12-15T23:35:21.620Z,99718.72
2022-12-15T23:37:47.942Z,99708.00
2022-12-15T23:40:19.909Z,99719.06
2022-12-15T23:42:46.562Z,99710.87
2022-12-15T23:45:12.939Z,99713.75
2022-12-15T23:47:39.305Z,99727.56
2022-12-15T23:50:05.613Z,99725.19
2022-12-15T23:52:31.930Z,99724.09
2022-12-15T23:54:58.243Z,99715.44
2022-12-15T23:57:24.584Z,99723.84
2022-12-15T23:59:50.960Z,99725.19
